• Join FlightAware (Why Join?)
  • Login
  • US Flag 
12:38AM EDT


 

Airport Tracker/Info


-or-


 

Live Flight TrackerFlight Track Log ✈ N449ND ✈ 02-Apr-2014 ✈ KFPR - KFPR

Flight Track Log - Related Links

Times and Time Zones

All times are in EDT time to prevent confusion due to time zone crossing. See the N449ND flight status page for this flight to view local times or setup timezone preferences in your user account.

Time Position Orientation Groundspeed Altitude Reporting Facility
EDT Latitude Longitude Course Direction KTS MPH feet Rate Location/Type
03:44PM 27.4983 -80.3569 89° East 100 115 500  Level Miami Center
03:45PM 27.4986 -80.3358 89° East 86 99 1,100 540 Climbing Miami Center
03:46PM 27.4994 -80.3103 88° East 80 92 1,600 480 Climbing Miami Center
03:47PM 27.4997 -80.2892 89° East 75 86 2,100 600 Climbing Miami Center
03:48PM 27.5006 -80.2633 88° East 75 86 2,800 420 Climbing Miami Center
03:49PM 27.5189 -80.2733 334° Northwest 43 49 3,000 60 Climbing Miami Center
03:50PM 27.5350 -80.3042 301° West 100 115 3,000  Level Miami Center
03:51PM 27.5511 -80.3306 305° West 112 129 3,000  Level Miami Center
03:52PM 27.5714 -80.3569 311° West 117 135 3,000  Level Miami Center
03:53PM 27.5875 -80.3761 313° West 111 128 3,000  Level Miami Center
03:54PM 27.5886 -80.4183 272° West 100 115 3,000  Level Miami Center
03:55PM 27.5714 -80.4436 232° Southwest 105 121 3,000  Level Miami Center
03:56PM 27.5642 -80.4739 255° West 110 127 3,000  Level Miami Center
03:57PM 27.5633 -80.5089 268° West 110 127 3,000  Level Miami Center
03:58PM 27.5728 -80.5444 287° West 110 127 3,000 -60 Level Miami Center
03:59PM 27.5889 -80.5731 302° West 110 127 2,900  Descending Miami Center
04:00PM 27.6133 -80.5994 316° Northwest 110 127 3,000  Climbing Miami Center
04:01PM 27.6397 -80.6214 324° Northwest 110 127 3,000  Level Miami Center
04:02PM 27.6689 -80.6272 350° North 105 121 3,000  Level Miami Center
04:03PM 27.7003 -80.6258 North 105 121 3,000  Level Miami Center
04:04PM 27.7133 -80.6028 57° Northeast 88 101 3,000 -300 Level Miami Center
04:05PM 27.7056 -80.5767 109° East 80 92 2,400 -840 Descending Miami Center
04:06PM 27.6942 -80.5411 110° East 92 106 1,200 -600 Descending Miami Center
04:07PM 27.6864 -80.5175 110° East 92 106 1,200  Level Miami Center
04:08PM 27.6806 -80.4986 109° East 86 99 1,200 -240 Level Miami Center
04:09PM 27.6708 -80.4725 113° Southeast 75 86 800 900 Descending Miami Center
04:10PM 27.6647 -80.4583 116° Southeast 75 86 3,000 -240 Climbing Miami Center
04:11PM 27.6572 -80.4297 106° East 70 81 400 -1,020 Descending Miami Center
04:12PM 27.6514 -80.4086 107° East 70 81 1,000 600 Climbing Miami Center
04:13PM 27.6478 -80.3850 100° East 70 81 1,600 540 Climbing Miami Center
04:14PM 27.6444 -80.3592 98° East 70 81 2,100 480 Climbing Miami Center
04:15PM 27.6386 -80.3356 106° East 70 81 2,600 360 Climbing Miami Center
04:16PM 27.6350 -80.3142 101° East 75 86 2,900 120 Climbing Miami Center
04:17PM 27.6419 -80.2864 74° East 81 93 2,900  Level Miami Center
04:18PM 27.6561 -80.3056 310° West 95 109 2,900  Level Miami Center
04:19PM 27.6739 -80.3458 296° West 100 115 3,000  Climbing Miami Center
04:20PM 27.6900 -80.3744 302° West 106 122 3,000  Level Miami Center
04:21PM 27.7039 -80.4008 301° West 111 128 3,000  Level Miami Center
04:22PM 27.7197 -80.4317 300° West 111 128 3,000  Level Miami Center
04:23PM 27.7378 -80.4675 300° West 111 128 3,000  Level Miami Center
04:24PM 27.7536 -80.4986 300° West 111 128 3,000  Level Miami Center
04:25PM 27.7694 -80.5294 300° West 116 133 3,000 -300 Level Miami Center
04:26PM 27.7833 -80.5558 301° West 116 133 2,500 -540 Descending Miami Center
04:27PM 27.7889 -80.5842 283° West 110 127 1,900 -240 Descending Miami Center
04:28PM 27.7614 -80.5997 207° Southwest 86 99 2,100  Climbing Miami Center
04:29PM 27.7278 -80.6125 199° South 105 121 2,000 -300 Descending Miami Center
04:30PM 27.7136 -80.5958 134° Southeast 89 102 1,600 -300 Descending Miami Center
04:31PM 27.7039 -80.5697 113° Southeast 84 97 1,500 -120 Descending Miami Center
04:32PM 27.6942 -80.5389 110° East 89 102 1,400  Descending Miami Center
04:33PM 27.6864 -80.5175 112° Southeast 89 102 1,500 -120 Climbing Miami Center
04:34PM 27.6786 -80.4961 112° Southeast 78 90 1,200 -480 Descending Miami Center
04:35PM 27.6728 -80.4750 107° East 71 82 600 -420 Descending Miami Center
04:36PM 27.6650 -80.4511 110° East 71 82 400 -60 Descending Miami Center
04:37PM 27.6592 -80.4369 115° Southeast 71 82 500 360 Climbing Miami Center
04:38PM 27.6536 -80.4086 102° East 71 82 1,200 600 Climbing Miami Center
04:39PM 27.6519 -80.3850 95° East 71 82 1,800 900 Climbing Miami Center
04:40PM 27.6483 -80.3617 100° East 76 87 3,000 420 Climbing Miami Center
04:41PM 27.6450 -80.3333 98° East 76 87 2,700  Descending Miami Center
04:42PM 27.6392 -80.3075 104° East 76 87 3,000 120 Climbing Miami Center
04:43PM 27.6208 -80.2975 154° Southeast 81 93 3,000  Level Miami Center
04:44PM 27.6200 -80.3303 268° West 54 62 3,000  Level Miami Center
04:45PM 27.6150 -80.3628 260° West 88 101 3,000  Level Miami Center
04:46PM 27.6097 -80.4025 261° West 121 139 3,000  Level Miami Center
04:47PM 27.6028 -80.4353 257° West 121 139 3,000  Level Miami Center
04:48PM 27.5997 -80.4725 265° West 121 139 3,000  Level Miami Center
04:49PM 27.5928 -80.5053 257° West 121 139 3,000  Level Miami Center
04:50PM 27.5897 -80.5425 265° West 121 139 3,000 -180 Level Miami Center
04:51PM 27.5847 -80.5753 260° West 115 132 2,700 -540 Descending Miami Center
04:52PM 27.5736 -80.6006 244° Southwest 108 124 2,000 -300 Descending Miami Center
04:53PM 27.5486 -80.5950 169° South 80 92 2,100  Climbing Miami Center
04:54PM 27.5194 -80.5964 182° South 100 115 2,100 -60 Level Miami Center
04:55PM 27.4989 -80.5817 148° Southeast 95 109 2,000 -180 Descending Miami Center
04:56PM 27.4997 -80.5536 88° East 78 90 1,800 -60 Descending Miami Center
04:57PM 27.4983 -80.5256 93° East 90 104 1,900  Climbing Miami Center
04:58PM 27.4989 -80.4953 89° East 95 109 1,800 -240 Descending Miami Center
04:59PM 27.4997 -80.4669 88° East 90 104 1,500 -480 Descending Miami Center
05:00PM 27.4981 -80.4483 96° East 80 92 900 -420 Descending Miami Center
05:01PM 27.4989 -80.4178 88° East 80 92 700 -300 Descending Miami Center
05:02PM 27.4972 -80.3967 95° East 80 92 400 -120 Descending Miami Center
05:03PM 27.4978 -80.3781 88° East 80 92 500 360 Climbing Miami Center
05:05PM 27.4728 -80.3750 174° South 56 64 1,300 600 Climbing Miami Center
05:06PM 27.4475 -80.3811 192° South 82 94 2,000 360 Climbing Miami Center
05:07PM 27.4183 -80.3850 187° South 92 106 2,100  Climbing Miami Center
05:08PM 27.4111 -80.4244 258° West 92 106 2,000 -60 Descending Miami Center
05:09PM 27.4103 -80.4550 268° West 111 128 2,000  Level Miami Center
05:10PM 27.4092 -80.4922 268° West 117 135 2,000  Level Miami Center
05:11PM 27.4086 -80.5203 269° West 122 140 2,000  Level Miami Center
05:12PM 27.4075 -80.5672 268° West 122 140 2,000  Level Miami Center
05:13PM 27.4106 -80.6022 276° West 117 135 2,000  Level Miami Center
05:14PM 27.4397 -80.6081 350° North 91 105 2,000  Level Miami Center
05:15PM 27.4792 -80.6139 353° North 111 128 2,000  Level Miami Center
05:16PM 27.5025 -80.6053 18° North 96 110 2,000 -60 Level Miami Center
05:17PM 27.4992 -80.5747 97° East 75 86 1,900 -120 Descending Miami Center
05:18PM 27.4997 -80.5467 89° East 96 110 1,800  Descending Miami Center
05:19PM 27.4986 -80.5139 92° East 96 110 1,900  Climbing Miami Center
05:20PM 27.4972 -80.4858 93° East 96 110 1,800 -300 Descending Miami Center
05:21PM 27.4978 -80.4622 88° East 86 99 1,400 -420 Descending Miami Center
05:22PM 27.4983 -80.4389 88° East 81 93 1,000 -360 Descending Miami Center
05:23PM 27.4989 -80.4156 88° East 81 93 700 -420 Descending Miami Center
05:24PM 27.4975 -80.3897 93° East 81 93 200 -540 Descending Miami Center
05:26PM 27.4893 -80.3763 125° Southeast  Level FlightAware Approximate